sensor_id;sensor_type;location;lat;lon;timestamp;P1;durP1;ratioP1;P2;durP2;ratioP2
59950;SDS011;45812;53.540;9.774;2024-03-02T00:00:00;19.65;;;8.40;;
59950;SDS011;45812;53.540;9.774;2024-03-02T00:02:27;23.40;;;9.27;;
59950;SDS011;45812;53.540;9.774;2024-03-02T00:04:53;21.98;;;9.60;;
59950;SDS011;45812;53.540;9.774;2024-03-02T00:07:18;21.27;;;8.90;;
59950;SDS011;45812;53.540;9.774;2024-03-02T00:09:43;23.77;;;9.80;;
59950;SDS011;45812;53.540;9.774;2024-03-02T00:12:10;21.13;;;9.10;;
59950;SDS011;45812;53.540;9.774;2024-03-02T00:14:40;22.65;;;9.00;;
59950;SDS011;45812;53.540;9.774;2024-03-02T00:17:06;22.30;;;9.63;;
59950;SDS011;45812;53.540;9.774;2024-03-02T00:19:44;24.65;;;9.95;;
59950;SDS011;45812;53.540;9.774;2024-03-02T00:22:09;21.52;;;9.65;;
59950;SDS011;45812;53.540;9.774;2024-03-02T00:24:34;19.17;;;8.93;;
59950;SDS011;45812;53.540;9.774;2024-03-02T00:27:01;21.42;;;9.43;;
59950;SDS011;45812;53.540;9.774;2024-03-02T00:29:28;20.73;;;9.90;;
59950;SDS011;45812;53.540;9.774;2024-03-02T00:31:54;25.13;;;10.55;;
59950;SDS011;45812;53.540;9.774;2024-03-02T00:34:20;21.90;;;9.70;;
59950;SDS011;45812;53.540;9.774;2024-03-02T00:36:47;25.85;;;10.80;;
59950;SDS011;45812;53.540;9.774;2024-03-02T00:39:13;23.55;;;10.00;;
59950;SDS011;45812;53.540;9.774;2024-03-02T00:41:40;22.92;;;9.50;;
59950;SDS011;45812;53.540;9.774;2024-03-02T00:44:07;25.50;;;10.48;;
59950;SDS011;45812;53.540;9.774;2024-03-02T00:46:40;21.83;;;10.68;;
59950;SDS011;45812;53.540;9.774;2024-03-02T00:51:44;24.80;;;10.63;;
59950;SDS011;45812;53.540;9.774;2024-03-02T00:54:11;23.65;;;10.52;;
59950;SDS011;45812;53.540;9.774;2024-03-02T00:56:39;28.30;;;10.35;;
59950;SDS011;45812;53.540;9.774;2024-03-02T00:59:06;23.65;;;9.55;;
59950;SDS011;45812;53.540;9.774;2024-03-02T01:01:32;22.52;;;10.60;;
59950;SDS011;45812;53.540;9.774;2024-03-02T01:03:57;23.58;;;10.82;;
59950;SDS011;45812;53.540;9.774;2024-03-02T01:06:22;24.90;;;10.77;;
59950;SDS011;45812;53.540;9.774;2024-03-02T01:08:48;23.70;;;10.90;;
59950;SDS011;45812;53.540;9.774;2024-03-02T01:11:16;22.17;;;9.77;;
59950;SDS011;45812;53.540;9.774;2024-03-02T01:13:41;27.83;;;11.98;;
59950;SDS011;45812;53.540;9.774;2024-03-02T01:16:07;27.23;;;11.52;;
59950;SDS011;45812;53.540;9.774;2024-03-02T01:18:32;22.75;;;10.32;;
59950;SDS011;45812;53.540;9.774;2024-03-02T01:20:57;25.67;;;10.60;;
59950;SDS011;45812;53.540;9.774;2024-03-02T01:23:23;29.23;;;11.60;;
59950;SDS011;45812;53.540;9.774;2024-03-02T01:25:48;25.77;;;11.82;;
59950;SDS011;45812;53.540;9.774;2024-03-02T01:28:14;28.40;;;12.00;;
59950;SDS011;45812;53.540;9.774;2024-03-02T01:30:40;27.25;;;11.52;;
59950;SDS011;45812;53.540;9.774;2024-03-02T01:33:05;26.92;;;11.35;;
59950;SDS011;45812;53.540;9.774;2024-03-02T01:35:31;28.80;;;12.70;;
59950;SDS011;45812;53.540;9.774;2024-03-02T01:37:57;31.52;;;12.60;;
59950;SDS011;45812;53.540;9.774;2024-03-02T01:40:22;31.27;;;12.73;;
59950;SDS011;45812;53.540;9.774;2024-03-02T01:42:51;28.70;;;12.77;;
59950;SDS011;45812;53.540;9.774;2024-03-02T01:45:16;28.05;;;12.45;;
59950;SDS011;45812;53.540;9.774;2024-03-02T01:47:42;29.30;;;12.98;;
59950;SDS011;45812;53.540;9.774;2024-03-02T01:50:07;29.40;;;12.23;;
59950;SDS011;45812;53.540;9.774;2024-03-02T01:52:33;35.00;;;13.20;;
59950;SDS011;45812;53.540;9.774;2024-03-02T01:54:58;30.60;;;12.95;;
59950;SDS011;45812;53.540;9.774;2024-03-02T01:57:23;30.60;;;13.07;;
59950;SDS011;45812;53.540;9.774;2024-03-02T01:59:49;30.10;;;12.90;;
59950;SDS011;45812;53.540;9.774;2024-03-02T02:02:15;33.03;;;13.32;;
59950;SDS011;45812;53.540;9.774;2024-03-02T02:04:40;28.77;;;13.35;;
59950;SDS011;45812;53.540;9.774;2024-03-02T02:07:06;33.15;;;14.52;;
59950;SDS011;45812;53.540;9.774;2024-03-02T02:09:31;29.95;;;13.52;;
59950;SDS011;45812;53.540;9.774;2024-03-02T02:11:57;31.30;;;13.35;;
59950;SDS011;45812;53.540;9.774;2024-03-02T02:14:22;32.15;;;13.27;;
59950;SDS011;45812;53.540;9.774;2024-03-02T02:16:47;32.28;;;14.75;;
59950;SDS011;45812;53.540;9.774;2024-03-02T02:19:13;32.10;;;14.07;;
59950;SDS011;45812;53.540;9.774;2024-03-02T02:21:38;32.42;;;14.30;;
59950;SDS011;45812;53.540;9.774;2024-03-02T02:24:07;33.00;;;14.18;;
59950;SDS011;45812;53.540;9.774;2024-03-02T02:26:32;33.08;;;14.05;;
59950;SDS011;45812;53.540;9.774;2024-03-02T02:28:58;31.48;;;13.75;;
59950;SDS011;45812;53.540;9.774;2024-03-02T02:31:23;30.75;;;13.77;;
59950;SDS011;45812;53.540;9.774;2024-03-02T02:33:48;28.85;;;13.00;;
59950;SDS011;45812;53.540;9.774;2024-03-02T02:36:13;31.05;;;14.07;;
59950;SDS011;45812;53.540;9.774;2024-03-02T02:38:40;29.33;;;12.68;;
59950;SDS011;45812;53.540;9.774;2024-03-02T02:41:09;31.13;;;13.38;;
59950;SDS011;45812;53.540;9.774;2024-03-02T02:43:34;29.23;;;12.20;;
59950;SDS011;45812;53.540;9.774;2024-03-02T02:45:59;32.72;;;13.30;;
59950;SDS011;45812;53.540;9.774;2024-03-02T02:48:25;27.77;;;12.05;;
59950;SDS011;45812;53.540;9.774;2024-03-02T02:50:50;31.98;;;14.20;;
59950;SDS011;45812;53.540;9.774;2024-03-02T02:53:16;28.45;;;12.23;;
59950;SDS011;45812;53.540;9.774;2024-03-02T02:55:41;31.73;;;13.52;;
59950;SDS011;45812;53.540;9.774;2024-03-02T02:58:08;30.88;;;14.43;;
59950;SDS011;45812;53.540;9.774;2024-03-02T03:00:36;33.65;;;14.80;;
59950;SDS011;45812;53.540;9.774;2024-03-02T03:03:01;32.05;;;13.48;;
59950;SDS011;45812;53.540;9.774;2024-03-02T03:05:27;31.77;;;13.77;;
59950;SDS011;45812;53.540;9.774;2024-03-02T03:07:52;30.55;;;13.48;;
59950;SDS011;45812;53.540;9.774;2024-03-02T03:10:18;29.08;;;13.25;;
59950;SDS011;45812;53.540;9.774;2024-03-02T03:12:43;31.40;;;12.70;;
59950;SDS011;45812;53.540;9.774;2024-03-02T03:15:09;29.95;;;12.90;;
59950;SDS011;45812;53.540;9.774;2024-03-02T03:17:35;31.13;;;13.55;;
59950;SDS011;45812;53.540;9.774;2024-03-02T03:20:02;31.75;;;14.15;;
59950;SDS011;45812;53.540;9.774;2024-03-02T03:22:29;32.53;;;13.05;;
59950;SDS011;45812;53.540;9.774;2024-03-02T03:24:54;32.72;;;14.20;;
59950;SDS011;45812;53.540;9.774;2024-03-02T03:27:19;30.38;;;13.98;;
59950;SDS011;45812;53.540;9.774;2024-03-02T03:29:45;34.17;;;13.57;;
59950;SDS011;45812;53.540;9.774;2024-03-02T03:32:10;31.83;;;13.00;;
59950;SDS011;45812;53.540;9.774;2024-03-02T03:34:36;32.65;;;14.35;;
59950;SDS011;45812;53.540;9.774;2024-03-02T03:37:01;30.38;;;14.38;;
59950;SDS011;45812;53.540;9.774;2024-03-02T03:39:27;34.60;;;15.05;;
59950;SDS011;45812;53.540;9.774;2024-03-02T03:41:53;32.25;;;13.68;;
59950;SDS011;45812;53.540;9.774;2024-03-02T03:44:19;32.05;;;14.93;;
59950;SDS011;45812;53.540;9.774;2024-03-02T03:46:44;33.28;;;13.52;;
59950;SDS011;45812;53.540;9.774;2024-03-02T03:49:09;32.97;;;14.43;;
59950;SDS011;45812;53.540;9.774;2024-03-02T03:51:34;30.30;;;14.00;;
59950;SDS011;45812;53.540;9.774;2024-03-02T03:54:00;27.90;;;13.15;;
59950;SDS011;45812;53.540;9.774;2024-03-02T03:56:25;31.95;;;13.93;;
59950;SDS011;45812;53.540;9.774;2024-03-02T03:58:51;29.50;;;14.00;;
59950;SDS011;45812;53.540;9.774;2024-03-02T04:01:16;30.80;;;13.15;;
59950;SDS011;45812;53.540;9.774;2024-03-02T04:03:41;33.75;;;13.93;;
59950;SDS011;45812;53.540;9.774;2024-03-02T04:06:06;32.65;;;13.65;;
59950;SDS011;45812;53.540;9.774;2024-03-02T04:08:32;28.80;;;13.13;;
59950;SDS011;45812;53.540;9.774;2024-03-02T04:10:57;32.72;;;15.68;;
59950;SDS011;45812;53.540;9.774;2024-03-02T04:13:22;30.33;;;14.07;;
59950;SDS011;45812;53.540;9.774;2024-03-02T04:15:47;28.83;;;13.70;;
59950;SDS011;45812;53.540;9.774;2024-03-02T04:18:13;30.60;;;14.20;;
59950;SDS011;45812;53.540;9.774;2024-03-02T04:20:38;32.50;;;14.40;;
59950;SDS011;45812;53.540;9.774;2024-03-02T04:23:03;34.75;;;14.35;;
59950;SDS011;45812;53.540;9.774;2024-03-02T04:25:29;33.03;;;14.80;;
59950;SDS011;45812;53.540;9.774;2024-03-02T04:27:54;31.27;;;13.30;;
59950;SDS011;45812;53.540;9.774;2024-03-02T04:30:19;31.27;;;13.85;;
59950;SDS011;45812;53.540;9.774;2024-03-02T04:32:45;32.72;;;14.35;;
59950;SDS011;45812;53.540;9.774;2024-03-02T04:35:11;34.17;;;14.77;;
59950;SDS011;45812;53.540;9.774;2024-03-02T04:37:40;31.25;;;13.48;;
59950;SDS011;45812;53.540;9.774;2024-03-02T04:40:05;27.98;;;13.68;;
59950;SDS011;45812;53.540;9.774;2024-03-02T04:42:34;33.05;;;13.93;;
59950;SDS011;45812;53.540;9.774;2024-03-02T04:45:00;33.65;;;13.43;;
59950;SDS011;45812;53.540;9.774;2024-03-02T04:47:25;31.45;;;13.45;;
59950;SDS011;45812;53.540;9.774;2024-03-02T04:49:50;32.67;;;14.27;;
59950;SDS011;45812;53.540;9.774;2024-03-02T04:52:16;30.58;;;13.38;;
59950;SDS011;45812;53.540;9.774;2024-03-02T04:54:42;32.75;;;13.27;;
59950;SDS011;45812;53.540;9.774;2024-03-02T04:57:33;29.17;;;13.85;;
59950;SDS011;45812;53.540;9.774;2024-03-02T04:59:58;31.90;;;13.18;;
59950;SDS011;45812;53.540;9.774;2024-03-02T05:02:23;32.53;;;13.85;;
59950;SDS011;45812;53.540;9.774;2024-03-02T05:04:48;28.98;;;12.95;;
59950;SDS011;45812;53.540;9.774;2024-03-02T05:07:14;28.92;;;13.18;;
59950;SDS011;45812;53.540;9.774;2024-03-02T05:09:39;28.73;;;12.80;;
59950;SDS011;45812;53.540;9.774;2024-03-02T05:12:05;31.15;;;13.20;;
59950;SDS011;45812;53.540;9.774;2024-03-02T05:17:13;31.30;;;13.17;;
59950;SDS011;45812;53.540;9.774;2024-03-02T05:19:38;31.88;;;13.05;;
59950;SDS011;45812;53.540;9.774;2024-03-02T05:22:04;27.77;;;13.52;;
59950;SDS011;45812;53.540;9.774;2024-03-02T05:24:29;32.38;;;14.20;;
59950;SDS011;45812;53.540;9.774;2024-03-02T05:26:54;34.25;;;14.32;;
59950;SDS011;45812;53.540;9.774;2024-03-02T05:29:20;30.05;;;13.85;;
59950;SDS011;45812;53.540;9.774;2024-03-02T05:31:45;30.45;;;13.52;;
59950;SDS011;45812;53.540;9.774;2024-03-02T05:34:11;31.33;;;14.18;;
59950;SDS011;45812;53.540;9.774;2024-03-02T05:36:36;29.20;;;13.20;;
59950;SDS011;45812;53.540;9.774;2024-03-02T05:39:03;32.78;;;12.85;;
59950;SDS011;45812;53.540;9.774;2024-03-02T05:41:30;29.52;;;12.88;;
59950;SDS011;45812;53.540;9.774;2024-03-02T05:43:56;29.45;;;12.70;;
59950;SDS011;45812;53.540;9.774;2024-03-02T05:46:21;29.67;;;13.43;;
59950;SDS011;45812;53.540;9.774;2024-03-02T05:48:47;30.90;;;13.15;;
59950;SDS011;45812;53.540;9.774;2024-03-02T05:51:12;32.58;;;13.38;;
59950;SDS011;45812;53.540;9.774;2024-03-02T05:53:37;29.15;;;13.45;;
59950;SDS011;45812;53.540;9.774;2024-03-02T05:56:03;28.83;;;12.98;;
59950;SDS011;45812;53.540;9.774;2024-03-02T05:58:30;29.45;;;13.45;;
59950;SDS011;45812;53.540;9.774;2024-03-02T06:01:28;33.08;;;13.55;;
59950;SDS011;45812;53.540;9.774;2024-03-02T06:03:55;32.45;;;14.75;;
59950;SDS011;45812;53.540;9.774;2024-03-02T06:06:21;29.27;;;13.57;;
59950;SDS011;45812;53.540;9.774;2024-03-02T06:08:47;28.30;;;13.38;;
59950;SDS011;45812;53.540;9.774;2024-03-02T06:11:12;31.45;;;14.13;;
59950;SDS011;45812;53.540;9.774;2024-03-02T06:13:37;28.23;;;13.80;;
59950;SDS011;45812;53.540;9.774;2024-03-02T06:16:03;30.83;;;13.10;;
59950;SDS011;45812;53.540;9.774;2024-03-02T06:18:28;30.05;;;12.88;;
59950;SDS011;45812;53.540;9.774;2024-03-02T06:20:53;33.75;;;14.82;;
59950;SDS011;45812;53.540;9.774;2024-03-02T06:23:19;33.92;;;13.73;;
59950;SDS011;45812;53.540;9.774;2024-03-02T06:25:44;30.92;;;13.52;;
59950;SDS011;45812;53.540;9.774;2024-03-02T06:28:09;30.38;;;13.82;;
59950;SDS011;45812;53.540;9.774;2024-03-02T06:30:34;28.70;;;12.38;;
59950;SDS011;45812;53.540;9.774;2024-03-02T06:32:59;29.77;;;12.38;;
59950;SDS011;45812;53.540;9.774;2024-03-02T06:35:25;29.83;;;13.15;;
59950;SDS011;45812;53.540;9.774;2024-03-02T06:37:50;31.60;;;13.95;;
59950;SDS011;45812;53.540;9.774;2024-03-02T06:40:16;30.42;;;13.18;;
59950;SDS011;45812;53.540;9.774;2024-03-02T06:42:41;30.98;;;13.82;;
59950;SDS011;45812;53.540;9.774;2024-03-02T06:45:06;32.20;;;13.10;;
59950;SDS011;45812;53.540;9.774;2024-03-02T06:47:32;30.40;;;13.43;;
59950;SDS011;45812;53.540;9.774;2024-03-02T06:49:57;36.10;;;14.63;;
59950;SDS011;45812;53.540;9.774;2024-03-02T06:52:23;32.30;;;14.15;;
59950;SDS011;45812;53.540;9.774;2024-03-02T06:54:49;31.80;;;13.77;;
59950;SDS011;45812;53.540;9.774;2024-03-02T06:57:14;32.40;;;13.65;;
59950;SDS011;45812;53.540;9.774;2024-03-02T06:59:39;32.15;;;14.35;;
59950;SDS011;45812;53.540;9.774;2024-03-02T07:02:04;29.13;;;12.93;;
59950;SDS011;45812;53.540;9.774;2024-03-02T07:04:30;32.15;;;12.88;;
59950;SDS011;45812;53.540;9.774;2024-03-02T07:06:55;34.33;;;13.50;;
59950;SDS011;45812;53.540;9.774;2024-03-02T07:09:20;32.53;;;13.95;;
59950;SDS011;45812;53.540;9.774;2024-03-02T07:11:47;31.83;;;13.18;;
59950;SDS011;45812;53.540;9.774;2024-03-02T07:14:13;29.88;;;13.05;;
59950;SDS011;45812;53.540;9.774;2024-03-02T07:16:38;26.98;;;11.55;;
59950;SDS011;45812;53.540;9.774;2024-03-02T07:19:05;30.58;;;12.88;;
59950;SDS011;45812;53.540;9.774;2024-03-02T07:21:30;31.95;;;14.02;;
59950;SDS011;45812;53.540;9.774;2024-03-02T07:23:57;30.63;;;12.23;;
59950;SDS011;45812;53.540;9.774;2024-03-02T07:26:22;28.40;;;12.68;;
59950;SDS011;45812;53.540;9.774;2024-03-02T07:28:48;28.10;;;12.93;;
59950;SDS011;45812;53.540;9.774;2024-03-02T07:31:14;29.20;;;12.63;;
59950;SDS011;45812;53.540;9.774;2024-03-02T07:33:39;30.05;;;13.40;;
59950;SDS011;45812;53.540;9.774;2024-03-02T07:36:04;28.02;;;12.07;;
59950;SDS011;45812;53.540;9.774;2024-03-02T07:38:30;34.08;;;12.40;;
59950;SDS011;45812;53.540;9.774;2024-03-02T07:40:56;30.38;;;13.05;;
59950;SDS011;45812;53.540;9.774;2024-03-02T07:43:21;27.55;;;12.57;;
59950;SDS011;45812;53.540;9.774;2024-03-02T07:45:47;30.02;;;12.30;;
59950;SDS011;45812;53.540;9.774;2024-03-02T07:48:12;26.98;;;12.18;;
59950;SDS011;45812;53.540;9.774;2024-03-02T07:50:38;28.35;;;11.57;;
59950;SDS011;45812;53.540;9.774;2024-03-02T07:53:04;29.75;;;11.90;;
59950;SDS011;45812;53.540;9.774;2024-03-02T07:55:30;29.77;;;12.80;;
59950;SDS011;45812;53.540;9.774;2024-03-02T07:57:59;29.23;;;12.02;;
59950;SDS011;45812;53.540;9.774;2024-03-02T08:00:26;26.85;;;11.75;;
59950;SDS011;45812;53.540;9.774;2024-03-02T08:02:52;28.35;;;11.48;;
59950;SDS011;45812;53.540;9.774;2024-03-02T08:05:18;26.58;;;11.60;;
59950;SDS011;45812;53.540;9.774;2024-03-02T08:07:46;26.45;;;10.73;;
59950;SDS011;45812;53.540;9.774;2024-03-02T08:10:12;29.85;;;12.10;;
59950;SDS011;45812;53.540;9.774;2024-03-02T08:12:38;24.35;;;9.80;;
59950;SDS011;45812;53.540;9.774;2024-03-02T08:15:03;25.80;;;11.15;;
59950;SDS011;45812;53.540;9.774;2024-03-02T08:17:29;25.00;;;10.57;;
59950;SDS011;45812;53.540;9.774;2024-03-02T08:19:55;28.27;;;11.45;;
59950;SDS011;45812;53.540;9.774;2024-03-02T08:22:20;25.67;;;11.10;;
59950;SDS011;45812;53.540;9.774;2024-03-02T08:24:45;26.48;;;10.60;;
59950;SDS011;45812;53.540;9.774;2024-03-02T08:27:10;24.52;;;10.88;;
59950;SDS011;45812;53.540;9.774;2024-03-02T08:29:37;26.08;;;11.75;;
59950;SDS011;45812;53.540;9.774;2024-03-02T08:32:02;21.92;;;10.45;;
59950;SDS011;45812;53.540;9.774;2024-03-02T08:34:27;28.33;;;11.43;;
59950;SDS011;45812;53.540;9.774;2024-03-02T08:36:52;25.20;;;10.27;;
59950;SDS011;45812;53.540;9.774;2024-03-02T08:39:18;25.40;;;10.75;;
59950;SDS011;45812;53.540;9.774;2024-03-02T08:41:45;27.48;;;12.07;;
59950;SDS011;45812;53.540;9.774;2024-03-02T08:44:11;24.83;;;11.25;;
59950;SDS011;45812;53.540;9.774;2024-03-02T08:46:37;25.85;;;11.20;;
59950;SDS011;45812;53.540;9.774;2024-03-02T08:49:03;26.70;;;11.50;;
59950;SDS011;45812;53.540;9.774;2024-03-02T08:51:28;23.60;;;10.75;;
59950;SDS011;45812;53.540;9.774;2024-03-02T08:53:54;23.70;;;11.02;;
59950;SDS011;45812;53.540;9.774;2024-03-02T08:56:19;26.00;;;11.50;;
59950;SDS011;45812;53.540;9.774;2024-03-02T08:58:46;27.60;;;11.57;;
59950;SDS011;45812;53.540;9.774;2024-03-02T09:01:11;22.65;;;10.55;;
59950;SDS011;45812;53.540;9.774;2024-03-02T09:03:37;26.27;;;10.38;;
59950;SDS011;45812;53.540;9.774;2024-03-02T09:06:02;24.55;;;11.05;;
59950;SDS011;45812;53.540;9.774;2024-03-02T09:08:28;22.15;;;9.73;;
59950;SDS011;45812;53.540;9.774;2024-03-02T09:10:54;26.73;;;11.07;;
59950;SDS011;45812;53.540;9.774;2024-03-02T09:13:20;22.42;;;10.25;;
59950;SDS011;45812;53.540;9.774;2024-03-02T09:15:46;20.48;;;9.77;;
59950;SDS011;45812;53.540;9.774;2024-03-02T09:18:11;25.13;;;10.32;;
59950;SDS011;45812;53.540;9.774;2024-03-02T09:20:36;22.63;;;10.40;;
59950;SDS011;45812;53.540;9.774;2024-03-02T09:23:01;23.10;;;9.70;;
59950;SDS011;45812;53.540;9.774;2024-03-02T09:25:27;21.92;;;9.75;;
59950;SDS011;45812;53.540;9.774;2024-03-02T09:27:52;22.13;;;9.33;;
59950;SDS011;45812;53.540;9.774;2024-03-02T09:30:17;24.13;;;10.63;;
59950;SDS011;45812;53.540;9.774;2024-03-02T09:32:43;22.25;;;10.55;;
59950;SDS011;45812;53.540;9.774;2024-03-02T09:35:08;20.00;;;9.15;;
59950;SDS011;45812;53.540;9.774;2024-03-02T09:37:34;18.42;;;8.60;;
59950;SDS011;45812;53.540;9.774;2024-03-02T09:40:00;16.70;;;8.20;;
59950;SDS011;45812;53.540;9.774;2024-03-02T09:42:25;21.40;;;9.05;;
59950;SDS011;45812;53.540;9.774;2024-03-02T09:44:51;22.85;;;9.07;;
59950;SDS011;45812;53.540;9.774;2024-03-02T09:47:17;22.52;;;8.30;;
59950;SDS011;45812;53.540;9.774;2024-03-02T09:49:42;20.37;;;8.87;;
59950;SDS011;45812;53.540;9.774;2024-03-02T09:52:08;20.45;;;9.27;;
59950;SDS011;45812;53.540;9.774;2024-03-02T09:54:35;20.50;;;8.65;;
59950;SDS011;45812;53.540;9.774;2024-03-02T09:57:01;18.27;;;8.38;;
59950;SDS011;45812;53.540;9.774;2024-03-02T09:59:27;18.60;;;8.63;;
59950;SDS011;45812;53.540;9.774;2024-03-02T10:02:00;17.92;;;8.20;;
59950;SDS011;45812;53.540;9.774;2024-03-02T10:04:27;16.88;;;8.15;;
59950;SDS011;45812;53.540;9.774;2024-03-02T10:09:38;20.02;;;8.60;;
59950;SDS011;45812;53.540;9.774;2024-03-02T10:12:07;16.10;;;7.50;;
59950;SDS011;45812;53.540;9.774;2024-03-02T10:14:33;17.88;;;7.80;;
59950;SDS011;45812;53.540;9.774;2024-03-02T10:17:02;18.85;;;8.18;;
59950;SDS011;45812;53.540;9.774;2024-03-02T10:19:28;16.85;;;7.40;;
59950;SDS011;45812;53.540;9.774;2024-03-02T10:21:57;14.90;;;6.80;;
59950;SDS011;45812;53.540;9.774;2024-03-02T10:24:23;14.35;;;6.40;;
59950;SDS011;45812;53.540;9.774;2024-03-02T10:26:49;16.55;;;7.13;;
59950;SDS011;45812;53.540;9.774;2024-03-02T10:29:14;15.15;;;7.07;;
59950;SDS011;45812;53.540;9.774;2024-03-02T10:31:41;16.55;;;7.53;;
59950;SDS011;45812;53.540;9.774;2024-03-02T10:34:08;16.05;;;7.35;;
59950;SDS011;45812;53.540;9.774;2024-03-02T10:36:34;13.73;;;6.35;;
59950;SDS011;45812;53.540;9.774;2024-03-02T10:39:01;12.63;;;6.32;;
59950;SDS011;45812;53.540;9.774;2024-03-02T10:41:28;15.73;;;7.43;;
59950;SDS011;45812;53.540;9.774;2024-03-02T10:44:08;14.70;;;6.65;;
59950;SDS011;45812;53.540;9.774;2024-03-02T10:46:35;12.57;;;5.97;;
59950;SDS011;45812;53.540;9.774;2024-03-02T10:49:02;13.05;;;6.43;;
59950;SDS011;45812;53.540;9.774;2024-03-02T10:51:30;14.80;;;6.55;;
59950;SDS011;45812;53.540;9.774;2024-03-02T10:54:01;12.88;;;6.53;;
59950;SDS011;45812;53.540;9.774;2024-03-02T10:58:55;13.95;;;6.85;;
59950;SDS011;45812;53.540;9.774;2024-03-02T11:01:27;13.27;;;6.18;;
59950;SDS011;45812;53.540;9.774;2024-03-02T11:03:57;14.98;;;6.55;;
59950;SDS011;45812;53.540;9.774;2024-03-02T11:06:23;15.35;;;5.57;;
59950;SDS011;45812;53.540;9.774;2024-03-02T11:08:52;12.23;;;5.60;;
59950;SDS011;45812;53.540;9.774;2024-03-02T11:11:25;13.35;;;6.32;;
59950;SDS011;45812;53.540;9.774;2024-03-02T11:13:54;15.18;;;6.70;;
59950;SDS011;45812;53.540;9.774;2024-03-02T11:16:31;11.85;;;5.97;;
59950;SDS011;45812;53.540;9.774;2024-03-02T11:19:01;12.13;;;5.72;;
59950;SDS011;45812;53.540;9.774;2024-03-02T11:21:29;14.50;;;6.03;;
59950;SDS011;45812;53.540;9.774;2024-03-02T11:23:54;13.07;;;6.18;;
59950;SDS011;45812;53.540;9.774;2024-03-02T11:26:20;15.02;;;5.70;;
59950;SDS011;45812;53.540;9.774;2024-03-02T11:28:47;11.52;;;5.70;;
59950;SDS011;45812;53.540;9.774;2024-03-02T11:31:12;13.65;;;6.63;;
59950;SDS011;45812;53.540;9.774;2024-03-02T11:33:37;11.63;;;6.10;;
59950;SDS011;45812;53.540;9.774;2024-03-02T11:36:03;15.48;;;6.47;;
59950;SDS011;45812;53.540;9.774;2024-03-02T11:38:30;11.10;;;5.55;;
59950;SDS011;45812;53.540;9.774;2024-03-02T11:40:57;11.93;;;5.70;;
59950;SDS011;45812;53.540;9.774;2024-03-02T11:43:22;11.07;;;5.55;;
59950;SDS011;45812;53.540;9.774;2024-03-02T11:45:48;11.77;;;5.43;;
59950;SDS011;45812;53.540;9.774;2024-03-02T11:48:21;12.13;;;5.65;;
59950;SDS011;45812;53.540;9.774;2024-03-02T11:50:49;11.02;;;5.30;;
59950;SDS011;45812;53.540;9.774;2024-03-02T11:53:15;7.68;;;4.63;;
59950;SDS011;45812;53.540;9.774;2024-03-02T11:55:42;10.68;;;5.22;;
59950;SDS011;45812;53.540;9.774;2024-03-02T11:58:11;11.82;;;4.88;;
59950;SDS011;45812;53.540;9.774;2024-03-02T12:00:45;7.57;;;3.97;;
59950;SDS011;45812;53.540;9.774;2024-03-02T12:03:12;9.10;;;4.70;;
59950;SDS011;45812;53.540;9.774;2024-03-02T12:05:39;10.93;;;4.53;;
59950;SDS011;45812;53.540;9.774;2024-03-02T12:08:05;9.02;;;4.70;;
59950;SDS011;45812;53.540;9.774;2024-03-02T12:10:31;9.70;;;4.40;;
59950;SDS011;45812;53.540;9.774;2024-03-02T12:12:58;9.82;;;4.60;;
59950;SDS011;45812;53.540;9.774;2024-03-02T12:15:31;9.50;;;4.70;;
59950;SDS011;45812;53.540;9.774;2024-03-02T12:18:04;12.55;;;4.90;;
59950;SDS011;45812;53.540;9.774;2024-03-02T12:20:30;12.27;;;5.43;;
59950;SDS011;45812;53.540;9.774;2024-03-02T12:22:59;11.80;;;4.43;;
59950;SDS011;45812;53.540;9.774;2024-03-02T12:25:26;9.82;;;4.90;;
59950;SDS011;45812;53.540;9.774;2024-03-02T12:27:53;10.68;;;4.65;;
59950;SDS011;45812;53.540;9.774;2024-03-02T12:30:19;14.38;;;4.85;;
59950;SDS011;45812;53.540;9.774;2024-03-02T12:32:45;9.00;;;4.80;;
59950;SDS011;45812;53.540;9.774;2024-03-02T12:35:11;9.15;;;5.28;;
59950;SDS011;45812;53.540;9.774;2024-03-02T12:37:46;9.00;;;4.20;;
59950;SDS011;45812;53.540;9.774;2024-03-02T12:40:16;13.65;;;5.60;;
59950;SDS011;45812;53.540;9.774;2024-03-02T12:42:43;13.98;;;6.20;;
59950;SDS011;45812;53.540;9.774;2024-03-02T12:45:09;9.52;;;4.55;;
59950;SDS011;45812;53.540;9.774;2024-03-02T12:47:35;10.35;;;5.70;;
59950;SDS011;45812;53.540;9.774;2024-03-02T12:50:01;11.65;;;4.68;;
59950;SDS011;45812;53.540;9.774;2024-03-02T12:52:28;12.38;;;5.05;;
59950;SDS011;45812;53.540;9.774;2024-03-02T12:54:54;8.27;;;4.30;;
59950;SDS011;45812;53.540;9.774;2024-03-02T12:57:24;6.95;;;4.50;;
59950;SDS011;45812;53.540;9.774;2024-03-02T12:59:51;8.25;;;4.75;;
59950;SDS011;45812;53.540;9.774;2024-03-02T13:02:17;15.55;;;4.90;;
59950;SDS011;45812;53.540;9.774;2024-03-02T13:04:43;11.05;;;5.22;;
59950;SDS011;45812;53.540;9.774;2024-03-02T13:07:08;8.23;;;4.37;;
59950;SDS011;45812;53.540;9.774;2024-03-02T13:09:35;9.95;;;4.10;;
59950;SDS011;45812;53.540;9.774;2024-03-02T13:12:00;7.55;;;4.07;;
59950;SDS011;45812;53.540;9.774;2024-03-02T13:14:26;8.05;;;4.38;;
59950;SDS011;45812;53.540;9.774;2024-03-02T13:16:51;7.83;;;4.60;;
59950;SDS011;45812;53.540;9.774;2024-03-02T13:19:17;9.75;;;4.82;;
59950;SDS011;45812;53.540;9.774;2024-03-02T13:21:45;9.95;;;4.50;;
59950;SDS011;45812;53.540;9.774;2024-03-02T13:24:11;7.05;;;4.57;;
59950;SDS011;45812;53.540;9.774;2024-03-02T13:26:36;7.43;;;3.90;;
59950;SDS011;45812;53.540;9.774;2024-03-02T13:29:02;7.95;;;3.70;;
59950;SDS011;45812;53.540;9.774;2024-03-02T13:31:27;7.77;;;4.23;;
59950;SDS011;45812;53.540;9.774;2024-03-02T13:33:52;10.50;;;4.35;;
59950;SDS011;45812;53.540;9.774;2024-03-02T13:36:17;7.83;;;4.00;;
59950;SDS011;45812;53.540;9.774;2024-03-02T13:38:44;8.00;;;3.80;;
59950;SDS011;45812;53.540;9.774;2024-03-02T13:41:09;10.52;;;4.60;;
59950;SDS011;45812;53.540;9.774;2024-03-02T13:43:36;7.85;;;4.25;;
59950;SDS011;45812;53.540;9.774;2024-03-02T13:46:03;9.73;;;4.15;;
59950;SDS011;45812;53.540;9.774;2024-03-02T13:48:28;9.30;;;4.20;;
59950;SDS011;45812;53.540;9.774;2024-03-02T13:50:54;9.63;;;4.22;;
59950;SDS011;45812;53.540;9.774;2024-03-02T13:53:19;8.15;;;4.05;;
59950;SDS011;45812;53.540;9.774;2024-03-02T13:55:45;9.40;;;4.70;;
59950;SDS011;45812;53.540;9.774;2024-03-02T13:58:10;7.63;;;3.85;;
59950;SDS011;45812;53.540;9.774;2024-03-02T14:00:36;7.80;;;3.70;;
59950;SDS011;45812;53.540;9.774;2024-03-02T14:03:03;8.32;;;4.43;;
59950;SDS011;45812;53.540;9.774;2024-03-02T14:05:32;8.10;;;4.10;;
59950;SDS011;45812;53.540;9.774;2024-03-02T14:07:57;7.80;;;4.20;;
59950;SDS011;45812;53.540;9.774;2024-03-02T14:10:24;10.40;;;4.25;;
59950;SDS011;45812;53.540;9.774;2024-03-02T14:12:49;8.77;;;4.95;;
59950;SDS011;45812;53.540;9.774;2024-03-02T14:15:14;7.33;;;4.03;;
59950;SDS011;45812;53.540;9.774;2024-03-02T14:17:40;7.75;;;4.32;;
59950;SDS011;45812;53.540;9.774;2024-03-02T14:20:05;6.93;;;4.43;;
59950;SDS011;45812;53.540;9.774;2024-03-02T14:22:31;8.60;;;4.80;;
59950;SDS011;45812;53.540;9.774;2024-03-02T14:24:57;7.30;;;4.32;;
59950;SDS011;45812;53.540;9.774;2024-03-02T14:27:22;8.25;;;4.05;;
59950;SDS011;45812;53.540;9.774;2024-03-02T14:29:47;7.80;;;3.58;;
59950;SDS011;45812;53.540;9.774;2024-03-02T14:32:13;6.88;;;4.32;;